sensor_id;sensor_type;location;lat;lon;timestamp;temperature;humidity
49731;DHT22;35622;52.008;5.426;2024-03-17T00:00:02;8.40;87.10
49731;DHT22;35622;52.008;5.426;2024-03-17T00:02:28;8.50;86.90
49731;DHT22;35622;52.008;5.426;2024-03-17T00:04:54;8.50;87.10
49731;DHT22;35622;52.008;5.426;2024-03-17T00:07:20;8.60;87.80
49731;DHT22;35622;52.008;5.426;2024-03-17T00:09:45;8.60;86.80
49731;DHT22;35622;52.008;5.426;2024-03-17T00:12:12;8.60;86.80
49731;DHT22;35622;52.008;5.426;2024-03-17T00:14:37;8.70;86.90
49731;DHT22;35622;52.008;5.426;2024-03-17T00:17:04;8.80;86.70
49731;DHT22;35622;52.008;5.426;2024-03-17T00:19:30;8.70;86.70
49731;DHT22;35622;52.008;5.426;2024-03-17T00:21:55;8.80;86.80
49731;DHT22;35622;52.008;5.426;2024-03-17T00:24:21;8.70;86.70
49731;DHT22;35622;52.008;5.426;2024-03-17T00:26:47;8.70;86.90
49731;DHT22;35622;52.008;5.426;2024-03-17T00:29:14;8.70;86.90
49731;DHT22;35622;52.008;5.426;2024-03-17T00:31:40;8.60;86.90
49731;DHT22;35622;52.008;5.426;2024-03-17T00:34:06;8.70;87.50
49731;DHT22;35622;52.008;5.426;2024-03-17T00:36:32;8.80;87.30
49731;DHT22;35622;52.008;5.426;2024-03-17T00:38:58;8.80;87.20
49731;DHT22;35622;52.008;5.426;2024-03-17T00:41:24;8.90;87.20
49731;DHT22;35622;52.008;5.426;2024-03-17T00:43:50;8.80;87.20
49731;DHT22;35622;52.008;5.426;2024-03-17T00:46:18;8.80;87.50
49731;DHT22;35622;52.008;5.426;2024-03-17T00:48:47;8.80;87.60
49731;DHT22;35622;52.008;5.426;2024-03-17T00:51:13;8.80;87.40
49731;DHT22;35622;52.008;5.426;2024-03-17T00:53:39;8.90;87.80
49731;DHT22;35622;52.008;5.426;2024-03-17T00:56:04;8.90;87.70
49731;DHT22;35622;52.008;5.426;2024-03-17T00:58:30;8.90;87.90
49731;DHT22;35622;52.008;5.426;2024-03-17T01:00:56;8.90;87.90
49731;DHT22;35622;52.008;5.426;2024-03-17T01:03:21;8.90;88.30
49731;DHT22;35622;52.008;5.426;2024-03-17T01:05:47;9.00;88.60
49731;DHT22;35622;52.008;5.426;2024-03-17T01:08:17;9.00;88.70
49731;DHT22;35622;52.008;5.426;2024-03-17T01:10:43;9.10;88.70
49731;DHT22;35622;52.008;5.426;2024-03-17T01:13:09;9.10;88.30
49731;DHT22;35622;52.008;5.426;2024-03-17T01:15:36;9.00;88.20
49731;DHT22;35622;52.008;5.426;2024-03-17T01:18:03;9.00;88.60
49731;DHT22;35622;52.008;5.426;2024-03-17T01:20:30;9.00;88.40
49731;DHT22;35622;52.008;5.426;2024-03-17T01:22:55;9.10;88.20
49731;DHT22;35622;52.008;5.426;2024-03-17T01:25:21;9.10;87.70
49731;DHT22;35622;52.008;5.426;2024-03-17T01:27:47;9.10;87.70
49731;DHT22;35622;52.008;5.426;2024-03-17T01:30:12;9.10;87.90
49731;DHT22;35622;52.008;5.426;2024-03-17T01:32:38;9.10;88.10
49731;DHT22;35622;52.008;5.426;2024-03-17T01:35:04;9.10;88.00
49731;DHT22;35622;52.008;5.426;2024-03-17T01:37:31;9.10;88.40
49731;DHT22;35622;52.008;5.426;2024-03-17T01:39:58;9.10;88.40
49731;DHT22;35622;52.008;5.426;2024-03-17T01:42:24;9.10;88.50
49731;DHT22;35622;52.008;5.426;2024-03-17T01:44:49;9.10;88.90
49731;DHT22;35622;52.008;5.426;2024-03-17T01:47:17;9.00;88.70
49731;DHT22;35622;52.008;5.426;2024-03-17T01:49:45;9.00;88.80
49731;DHT22;35622;52.008;5.426;2024-03-17T01:52:11;9.00;88.80
49731;DHT22;35622;52.008;5.426;2024-03-17T01:54:37;9.10;88.50
49731;DHT22;35622;52.008;5.426;2024-03-17T01:57:03;9.10;87.90
49731;DHT22;35622;52.008;5.426;2024-03-17T01:59:29;9.10;87.90
49731;DHT22;35622;52.008;5.426;2024-03-17T02:01:56;9.10;88.00
49731;DHT22;35622;52.008;5.426;2024-03-17T02:04:22;9.10;87.90
49731;DHT22;35622;52.008;5.426;2024-03-17T02:06:48;9.10;88.20
49731;DHT22;35622;52.008;5.426;2024-03-17T02:09:13;9.10;88.10
49731;DHT22;35622;52.008;5.426;2024-03-17T02:11:39;9.00;88.30
49731;DHT22;35622;52.008;5.426;2024-03-17T02:14:04;9.10;87.70
49731;DHT22;35622;52.008;5.426;2024-03-17T02:16:32;9.00;87.40
49731;DHT22;35622;52.008;5.426;2024-03-17T02:18:59;9.00;87.60
49731;DHT22;35622;52.008;5.426;2024-03-17T02:21:25;9.00;88.10
49731;DHT22;35622;52.008;5.426;2024-03-17T02:23:55;9.10;89.20
49731;DHT22;35622;52.008;5.426;2024-03-17T02:26:21;9.10;88.40
49731;DHT22;35622;52.008;5.426;2024-03-17T02:28:47;9.10;88.60
49731;DHT22;35622;52.008;5.426;2024-03-17T02:31:14;9.20;89.80
49731;DHT22;35622;52.008;5.426;2024-03-17T02:33:41;9.20;89.10
49731;DHT22;35622;52.008;5.426;2024-03-17T02:36:07;9.20;89.40
49731;DHT22;35622;52.008;5.426;2024-03-17T02:38:34;9.20;89.60
49731;DHT22;35622;52.008;5.426;2024-03-17T02:41:18;9.20;90.00
49731;DHT22;35622;52.008;5.426;2024-03-17T02:43:45;9.20;90.00
49731;DHT22;35622;52.008;5.426;2024-03-17T02:46:20;9.30;90.20
49731;DHT22;35622;52.008;5.426;2024-03-17T02:48:53;9.30;90.40
49731;DHT22;35622;52.008;5.426;2024-03-17T02:51:20;9.40;90.50
49731;DHT22;35622;52.008;5.426;2024-03-17T02:53:48;9.40;90.60
49731;DHT22;35622;52.008;5.426;2024-03-17T02:56:16;9.50;91.10
49731;DHT22;35622;52.008;5.426;2024-03-17T02:58:42;9.60;90.70
49731;DHT22;35622;52.008;5.426;2024-03-17T03:01:08;9.50;90.70
49731;DHT22;35622;52.008;5.426;2024-03-17T03:03:37;9.60;90.90
49731;DHT22;35622;52.008;5.426;2024-03-17T03:06:03;9.70;90.90
49731;DHT22;35622;52.008;5.426;2024-03-17T03:08:37;9.80;90.80
49731;DHT22;35622;52.008;5.426;2024-03-17T03:11:05;9.90;90.80
49731;DHT22;35622;52.008;5.426;2024-03-17T03:13:31;10.00;90.60
49731;DHT22;35622;52.008;5.426;2024-03-17T03:15:57;10.00;90.60
49731;DHT22;35622;52.008;5.426;2024-03-17T03:18:23;10.10;90.70
49731;DHT22;35622;52.008;5.426;2024-03-17T03:20:52;10.20;90.50
49731;DHT22;35622;52.008;5.426;2024-03-17T03:23:21;10.30;90.20
49731;DHT22;35622;52.008;5.426;2024-03-17T03:25:46;10.40;90.00
49731;DHT22;35622;52.008;5.426;2024-03-17T03:28:13;10.40;90.00
49731;DHT22;35622;52.008;5.426;2024-03-17T03:30:39;10.40;90.10
49731;DHT22;35622;52.008;5.426;2024-03-17T03:33:05;10.50;89.90
49731;DHT22;35622;52.008;5.426;2024-03-17T03:35:31;10.40;90.10
49731;DHT22;35622;52.008;5.426;2024-03-17T03:37:56;10.40;90.20
49731;DHT22;35622;52.008;5.426;2024-03-17T03:40:22;10.50;90.00
49731;DHT22;35622;52.008;5.426;2024-03-17T03:42:48;10.60;90.00
49731;DHT22;35622;52.008;5.426;2024-03-17T03:45:14;10.60;90.10
49731;DHT22;35622;52.008;5.426;2024-03-17T03:47:43;10.70;87.90
49731;DHT22;35622;52.008;5.426;2024-03-17T03:50:14;10.60;88.60
49731;DHT22;35622;52.008;5.426;2024-03-17T03:52:39;10.70;88.20
49731;DHT22;35622;52.008;5.426;2024-03-17T03:55:09;10.70;88.10
49731;DHT22;35622;52.008;5.426;2024-03-17T03:57:44;10.80;88.20
49731;DHT22;35622;52.008;5.426;2024-03-17T04:00:18;10.90;87.70
49731;DHT22;35622;52.008;5.426;2024-03-17T04:02:49;10.90;87.50
49731;DHT22;35622;52.008;5.426;2024-03-17T04:05:18;10.80;86.90
49731;DHT22;35622;52.008;5.426;2024-03-17T04:07:45;10.90;87.80
49731;DHT22;35622;52.008;5.426;2024-03-17T04:10:12;10.90;87.00
49731;DHT22;35622;52.008;5.426;2024-03-17T04:12:38;11.00;86.70
49731;DHT22;35622;52.008;5.426;2024-03-17T04:15:04;11.10;86.50
49731;DHT22;35622;52.008;5.426;2024-03-17T04:17:32;11.00;85.90
49731;DHT22;35622;52.008;5.426;2024-03-17T04:19:58;11.00;85.20
49731;DHT22;35622;52.008;5.426;2024-03-17T04:22:23;11.00;85.80
49731;DHT22;35622;52.008;5.426;2024-03-17T04:24:50;11.10;85.80
49731;DHT22;35622;52.008;5.426;2024-03-17T04:27:19;11.00;85.80
49731;DHT22;35622;52.008;5.426;2024-03-17T04:29:47;10.90;85.90
49731;DHT22;35622;52.008;5.426;2024-03-17T04:32:13;11.00;86.10
49731;DHT22;35622;52.008;5.426;2024-03-17T04:34:39;11.00;86.20
49731;DHT22;35622;52.008;5.426;2024-03-17T04:37:04;10.80;86.20
49731;DHT22;35622;52.008;5.426;2024-03-17T04:39:30;10.90;86.90
49731;DHT22;35622;52.008;5.426;2024-03-17T04:41:57;10.90;86.60
49731;DHT22;35622;52.008;5.426;2024-03-17T04:44:22;10.80;86.80
49731;DHT22;35622;52.008;5.426;2024-03-17T04:46:48;10.90;87.00
49731;DHT22;35622;52.008;5.426;2024-03-17T04:49:14;10.90;86.50
49731;DHT22;35622;52.008;5.426;2024-03-17T04:51:39;10.90;86.50
49731;DHT22;35622;52.008;5.426;2024-03-17T04:54:05;10.70;86.70
49731;DHT22;35622;52.008;5.426;2024-03-17T04:56:33;10.80;86.20
49731;DHT22;35622;52.008;5.426;2024-03-17T04:58:59;10.80;87.10
49731;DHT22;35622;52.008;5.426;2024-03-17T05:01:25;10.60;87.30
49731;DHT22;35622;52.008;5.426;2024-03-17T05:03:53;10.70;87.40
49731;DHT22;35622;52.008;5.426;2024-03-17T05:06:19;10.80;87.00
49731;DHT22;35622;52.008;5.426;2024-03-17T05:08:45;10.90;87.20
49731;DHT22;35622;52.008;5.426;2024-03-17T05:11:11;10.90;87.10
49731;DHT22;35622;52.008;5.426;2024-03-17T05:13:37;10.90;86.50
49731;DHT22;35622;52.008;5.426;2024-03-17T05:16:05;10.90;86.80
49731;DHT22;35622;52.008;5.426;2024-03-17T05:18:31;11.10;86.60
49731;DHT22;35622;52.008;5.426;2024-03-17T05:21:04;11.10;85.90
49731;DHT22;35622;52.008;5.426;2024-03-17T05:23:32;11.00;86.20
49731;DHT22;35622;52.008;5.426;2024-03-17T05:25:58;11.10;86.50
49731;DHT22;35622;52.008;5.426;2024-03-17T05:28:25;11.10;86.30
49731;DHT22;35622;52.008;5.426;2024-03-17T05:30:51;11.20;86.10
49731;DHT22;35622;52.008;5.426;2024-03-17T05:33:18;11.30;85.30
49731;DHT22;35622;52.008;5.426;2024-03-17T05:35:58;11.20;85.70
49731;DHT22;35622;52.008;5.426;2024-03-17T05:38:25;11.20;85.30
49731;DHT22;35622;52.008;5.426;2024-03-17T05:40:58;11.10;85.70
49731;DHT22;35622;52.008;5.426;2024-03-17T05:43:26;11.20;85.50
49731;DHT22;35622;52.008;5.426;2024-03-17T05:45:53;11.30;85.30
49731;DHT22;35622;52.008;5.426;2024-03-17T05:48:19;11.40;85.50
49731;DHT22;35622;52.008;5.426;2024-03-17T05:50:45;11.20;85.10
49731;DHT22;35622;52.008;5.426;2024-03-17T05:53:11;10.70;85.70
49731;DHT22;35622;52.008;5.426;2024-03-17T05:55:37;10.90;86.60
49731;DHT22;35622;52.008;5.426;2024-03-17T05:58:04;10.90;86.10
49731;DHT22;35622;52.008;5.426;2024-03-17T06:00:30;10.70;86.00
49731;DHT22;35622;52.008;5.426;2024-03-17T06:02:57;10.80;86.00
49731;DHT22;35622;52.008;5.426;2024-03-17T06:05:22;10.70;86.40
49731;DHT22;35622;52.008;5.426;2024-03-17T06:07:48;10.80;86.30
49731;DHT22;35622;52.008;5.426;2024-03-17T06:10:14;10.90;85.80
49731;DHT22;35622;52.008;5.426;2024-03-17T06:12:40;10.90;85.40
49731;DHT22;35622;52.008;5.426;2024-03-17T06:15:06;10.90;85.90
49731;DHT22;35622;52.008;5.426;2024-03-17T06:17:32;11.00;85.80
49731;DHT22;35622;52.008;5.426;2024-03-17T06:19:57;11.10;85.40
49731;DHT22;35622;52.008;5.426;2024-03-17T06:22:23;11.20;84.90
49731;DHT22;35622;52.008;5.426;2024-03-17T06:24:49;11.20;85.30
49731;DHT22;35622;52.008;5.426;2024-03-17T06:27:16;11.30;85.70
49731;DHT22;35622;52.008;5.426;2024-03-17T06:29:41;11.40;84.00
49731;DHT22;35622;52.008;5.426;2024-03-17T06:32:08;11.30;84.00
49731;DHT22;35622;52.008;5.426;2024-03-17T06:34:33;11.30;84.60
49731;DHT22;35622;52.008;5.426;2024-03-17T06:36:59;11.30;84.70
49731;DHT22;35622;52.008;5.426;2024-03-17T06:39:26;11.40;85.30
49731;DHT22;35622;52.008;5.426;2024-03-17T06:41:51;11.50;84.30
49731;DHT22;35622;52.008;5.426;2024-03-17T06:44:17;11.60;84.60
49731;DHT22;35622;52.008;5.426;2024-03-17T06:46:43;11.80;84.80
49731;DHT22;35622;52.008;5.426;2024-03-17T06:49:10;11.60;84.00
49731;DHT22;35622;52.008;5.426;2024-03-17T06:51:36;11.90;84.80
49731;DHT22;35622;52.008;5.426;2024-03-17T06:54:01;12.00;83.90
49731;DHT22;35622;52.008;5.426;2024-03-17T06:56:27;12.10;83.50
49731;DHT22;35622;52.008;5.426;2024-03-17T06:58:53;12.20;82.50
49731;DHT22;35622;52.008;5.426;2024-03-17T07:01:19;12.60;81.60
49731;DHT22;35622;52.008;5.426;2024-03-17T07:03:44;12.90;81.50
49731;DHT22;35622;52.008;5.426;2024-03-17T07:06:10;13.10;80.20
49731;DHT22;35622;52.008;5.426;2024-03-17T07:08:36;13.10;78.70
49731;DHT22;35622;52.008;5.426;2024-03-17T07:11:06;13.10;78.70
49731;DHT22;35622;52.008;5.426;2024-03-17T07:13:34;13.20;78.80
49731;DHT22;35622;52.008;5.426;2024-03-17T07:16:04;12.90;78.70
49731;DHT22;35622;52.008;5.426;2024-03-17T07:18:33;12.70;79.80
49731;DHT22;35622;52.008;5.426;2024-03-17T07:21:03;12.50;80.10
49731;DHT22;35622;52.008;5.426;2024-03-17T07:23:30;12.50;80.60
49731;DHT22;35622;52.008;5.426;2024-03-17T07:25:57;12.50;80.60
49731;DHT22;35622;52.008;5.426;2024-03-17T07:28:23;12.50;80.80
49731;DHT22;35622;52.008;5.426;2024-03-17T07:30:56;12.50;82.80
49731;DHT22;35622;52.008;5.426;2024-03-17T07:33:23;12.50;81.80
49731;DHT22;35622;52.008;5.426;2024-03-17T07:35:50;12.60;81.40
49731;DHT22;35622;52.008;5.426;2024-03-17T07:38:16;12.50;81.40
49731;DHT22;35622;52.008;5.426;2024-03-17T07:40:42;12.70;82.00
49731;DHT22;35622;52.008;5.426;2024-03-17T07:43:08;13.00;81.20
49731;DHT22;35622;52.008;5.426;2024-03-17T07:45:34;13.00;80.90
49731;DHT22;35622;52.008;5.426;2024-03-17T07:47:59;13.00;80.90
49731;DHT22;35622;52.008;5.426;2024-03-17T07:50:25;13.20;80.30
49731;DHT22;35622;52.008;5.426;2024-03-17T07:52:51;13.10;78.20
49731;DHT22;35622;52.008;5.426;2024-03-17T07:55:16;13.20;79.80
49731;DHT22;35622;52.008;5.426;2024-03-17T07:57:42;13.40;79.90
49731;DHT22;35622;52.008;5.426;2024-03-17T08:00:08;13.40;80.00
49731;DHT22;35622;52.008;5.426;2024-03-17T08:02:46;13.40;79.20
49731;DHT22;35622;52.008;5.426;2024-03-17T08:05:12;13.50;79.10
49731;DHT22;35622;52.008;5.426;2024-03-17T08:07:38;13.30;78.30
49731;DHT22;35622;52.008;5.426;2024-03-17T08:10:04;13.30;80.20
49731;DHT22;35622;52.008;5.426;2024-03-17T08:12:30;13.50;79.80
49731;DHT22;35622;52.008;5.426;2024-03-17T08:14:56;13.60;79.70
49731;DHT22;35622;52.008;5.426;2024-03-17T08:17:21;13.50;79.10
49731;DHT22;35622;52.008;5.426;2024-03-17T08:19:47;13.40;78.90
49731;DHT22;35622;52.008;5.426;2024-03-17T08:22:13;13.40;80.80
49731;DHT22;35622;52.008;5.426;2024-03-17T08:24:40;13.20;80.10
49731;DHT22;35622;52.008;5.426;2024-03-17T08:27:05;13.20;80.80
49731;DHT22;35622;52.008;5.426;2024-03-17T08:29:32;13.40;81.00
49731;DHT22;35622;52.008;5.426;2024-03-17T08:31:58;13.60;79.40
49731;DHT22;35622;52.008;5.426;2024-03-17T08:34:24;13.70;79.10
49731;DHT22;35622;52.008;5.426;2024-03-17T08:36:50;13.90;78.30
49731;DHT22;35622;52.008;5.426;2024-03-17T08:39:15;13.70;78.30
49731;DHT22;35622;52.008;5.426;2024-03-17T08:41:41;13.80;78.90
49731;DHT22;35622;52.008;5.426;2024-03-17T08:44:09;13.80;78.20
49731;DHT22;35622;52.008;5.426;2024-03-17T08:46:35;13.40;78.80
49731;DHT22;35622;52.008;5.426;2024-03-17T08:49:00;13.50;80.30
49731;DHT22;35622;52.008;5.426;2024-03-17T08:51:26;13.70;81.00
49731;DHT22;35622;52.008;5.426;2024-03-17T08:53:53;13.90;80.10
49731;DHT22;35622;52.008;5.426;2024-03-17T08:56:18;14.10;79.00
49731;DHT22;35622;52.008;5.426;2024-03-17T08:58:46;14.10;79.20
49731;DHT22;35622;52.008;5.426;2024-03-17T09:01:14;13.90;77.80
49731;DHT22;35622;52.008;5.426;2024-03-17T09:03:40;13.80;77.40
49731;DHT22;35622;52.008;5.426;2024-03-17T09:06:17;13.80;78.40
49731;DHT22;35622;52.008;5.426;2024-03-17T09:08:45;13.90;78.60
49731;DHT22;35622;52.008;5.426;2024-03-17T09:11:13;13.70;79.00
49731;DHT22;35622;52.008;5.426;2024-03-17T09:13:38;13.50;79.60
49731;DHT22;35622;52.008;5.426;2024-03-17T09:16:04;13.70;81.60
49731;DHT22;35622;52.008;5.426;2024-03-17T09:18:33;13.90;79.10
49731;DHT22;35622;52.008;5.426;2024-03-17T09:21:07;14.00;78.70
49731;DHT22;35622;52.008;5.426;2024-03-17T09:23:33;14.00;79.90
49731;DHT22;35622;52.008;5.426;2024-03-17T09:26:07;14.20;78.60
49731;DHT22;35622;52.008;5.426;2024-03-17T09:28:41;14.20;77.40
49731;DHT22;35622;52.008;5.426;2024-03-17T09:31:07;14.20;79.00
49731;DHT22;35622;52.008;5.426;2024-03-17T09:33:33;14.40;78.10
49731;DHT22;35622;52.008;5.426;2024-03-17T09:36:00;14.60;78.30
49731;DHT22;35622;52.008;5.426;2024-03-17T09:38:26;14.80;77.60
49731;DHT22;35622;52.008;5.426;2024-03-17T09:40:52;15.10;76.80
49731;DHT22;35622;52.008;5.426;2024-03-17T09:43:22;15.00;75.30
49731;DHT22;35622;52.008;5.426;2024-03-17T09:45:48;15.30;77.70
49731;DHT22;35622;52.008;5.426;2024-03-17T09:48:16;15.40;73.90
49731;DHT22;35622;52.008;5.426;2024-03-17T09:50:58;15.60;74.10
49731;DHT22;35622;52.008;5.426;2024-03-17T09:53:28;15.80;74.50
49731;DHT22;35622;52.008;5.426;2024-03-17T09:56:06;16.10;73.70
49731;DHT22;35622;52.008;5.426;2024-03-17T09:58:34;16.10;72.20
49731;DHT22;35622;52.008;5.426;2024-03-17T10:01:00;16.10;72.10
49731;DHT22;35622;52.008;5.426;2024-03-17T10:03:45;16.20;71.10
49731;DHT22;35622;52.008;5.426;2024-03-17T10:06:15;15.90;71.10
49731;DHT22;35622;52.008;5.426;2024-03-17T10:11:21;15.10;75.10
49731;DHT22;35622;52.008;5.426;2024-03-17T10:13:58;14.80;77.40
49731;DHT22;35622;52.008;5.426;2024-03-17T10:16:26;15.30;75.80
49731;DHT22;35622;52.008;5.426;2024-03-17T10:19:08;15.40;76.20
49731;DHT22;35622;52.008;5.426;2024-03-17T10:21:36;15.50;75.50
49731;DHT22;35622;52.008;5.426;2024-03-17T10:26:42;15.70;74.60
49731;DHT22;35622;52.008;5.426;2024-03-17T10:29:27;15.50;75.80
49731;DHT22;35622;52.008;5.426;2024-03-17T10:31:59;15.80;76.30
49731;DHT22;35622;52.008;5.426;2024-03-17T10:34:28;15.60;74.50
49731;DHT22;35622;52.008;5.426;2024-03-17T10:37:21;15.40;73.80
49731;DHT22;35622;52.008;5.426;2024-03-17T10:39:51;15.30;75.80
49731;DHT22;35622;52.008;5.426;2024-03-17T10:42:25;15.40;75.80
49731;DHT22;35622;52.008;5.426;2024-03-17T10:44:53;15.50;76.10
49731;DHT22;35622;52.008;5.426;2024-03-17T10:47:23;15.90;75.30
49731;DHT22;35622;52.008;5.426;2024-03-17T10:49:56;15.90;74.90
49731;DHT22;35622;52.008;5.426;2024-03-17T10:52:24;15.80;74.40
49731;DHT22;35622;52.008;5.426;2024-03-17T10:54:53;15.90;74.10
49731;DHT22;35622;52.008;5.426;2024-03-17T10:57:40;16.10;73.90
49731;DHT22;35622;52.008;5.426;2024-03-17T11:00:07;16.00;75.10
49731;DHT22;35622;52.008;5.426;2024-03-17T11:02:34;15.90;75.20
49731;DHT22;35622;52.008;5.426;2024-03-17T11:05:05;15.90;75.50
49731;DHT22;35622;52.008;5.426;2024-03-17T11:07:33;15.70;75.10
49731;DHT22;35622;52.008;5.426;2024-03-17T11:10:03;15.80;77.00
49731;DHT22;35622;52.008;5.426;2024-03-17T11:17:48;15.80;75.30
49731;DHT22;35622;52.008;5.426;2024-03-17T11:20:27;15.80;74.50
49731;DHT22;35622;52.008;5.426;2024-03-17T11:22:58;16.00;75.40
49731;DHT22;35622;52.008;5.426;2024-03-17T11:28:00;15.90;74.70
49731;DHT22;35622;52.008;5.426;2024-03-17T11:39:00;15.90;76.30
49731;DHT22;35622;52.008;5.426;2024-03-17T11:41:41;15.90;74.60
49731;DHT22;35622;52.008;5.426;2024-03-17T11:47:02;15.80;75.50
49731;DHT22;35622;52.008;5.426;2024-03-17T11:49:37;15.80;77.20
49731;DHT22;35622;52.008;5.426;2024-03-17T11:54:34;15.80;76.70
49731;DHT22;35622;52.008;5.426;2024-03-17T11:57:02;15.70;76.10
49731;DHT22;35622;52.008;5.426;2024-03-17T11:59:29;15.80;77.30
49731;DHT22;35622;52.008;5.426;2024-03-17T12:01:55;16.00;77.00
49731;DHT22;35622;52.008;5.426;2024-03-17T12:04:22;16.00;76.60
49731;DHT22;35622;52.008;5.426;2024-03-17T12:06:53;16.20;76.60
49731;DHT22;35622;52.008;5.426;2024-03-17T12:11:51;16.30;75.10
49731;DHT22;35622;52.008;5.426;2024-03-17T12:14:19;16.40;76.00
49731;DHT22;35622;52.008;5.426;2024-03-17T12:16:52;16.60;75.10
49731;DHT22;35622;52.008;5.426;2024-03-17T12:19:19;16.40;74.30
49731;DHT22;35622;52.008;5.426;2024-03-17T12:21:49;16.30;74.90
49731;DHT22;35622;52.008;5.426;2024-03-17T12:24:17;16.10;75.50
49731;DHT22;35622;52.008;5.426;2024-03-17T12:26:45;16.20;76.40
49731;DHT22;35622;52.008;5.426;2024-03-17T12:29:33;16.10;75.80
49731;DHT22;35622;52.008;5.426;2024-03-17T12:32:03;15.80;77.60
49731;DHT22;35622;52.008;5.426;2024-03-17T12:34:30;15.40;77.80
49731;DHT22;35622;52.008;5.426;2024-03-17T12:36:57;15.50;79.00
49731;DHT22;35622;52.008;5.426;2024-03-17T12:44:36;15.70;78.80
49731;DHT22;35622;52.008;5.426;2024-03-17T12:47:04;15.60;77.20
49731;DHT22;35622;52.008;5.426;2024-03-17T12:49:34;15.60;79.00
49731;DHT22;35622;52.008;5.426;2024-03-17T12:52:00;15.60;77.90
49731;DHT22;35622;52.008;5.426;2024-03-17T12:54:27;15.80;77.80
49731;DHT22;35622;52.008;5.426;2024-03-17T12:57:07;16.00;77.20
49731;DHT22;35622;52.008;5.426;2024-03-17T12:59:52;15.90;77.30
49731;DHT22;35622;52.008;5.426;2024-03-17T13:02:43;15.70;78.30
49731;DHT22;35622;52.008;5.426;2024-03-17T13:07:42;15.90;78.50
49731;DHT22;35622;52.008;5.426;2024-03-17T13:10:08;16.10;77.90
49731;DHT22;35622;52.008;5.426;2024-03-17T13:12:34;16.10;77.20
49731;DHT22;35622;52.008;5.426;2024-03-17T13:15:00;15.80;77.50
49731;DHT22;35622;52.008;5.426;2024-03-17T13:17:26;15.70;78.10
49731;DHT22;35622;52.008;5.426;2024-03-17T13:19:54;15.80;79.30
49731;DHT22;35622;52.008;5.426;2024-03-17T13:22:20;16.00;78.30
49731;DHT22;35622;52.008;5.426;2024-03-17T13:24:45;16.10;77.40
49731;DHT22;35622;52.008;5.426;2024-03-17T13:27:12;15.90;77.50
49731;DHT22;35622;52.008;5.426;2024-03-17T13:29:40;15.80;78.30
49731;DHT22;35622;52.008;5.426;2024-03-17T13:32:09;15.70;78.30
49731;DHT22;35622;52.008;5.426;2024-03-17T13:34:35;15.80;80.30
49731;DHT22;35622;52.008;5.426;2024-03-17T13:37:00;16.10;79.00
49731;DHT22;35622;52.008;5.426;2024-03-17T13:39:32;16.20;77.00
49731;DHT22;35622;52.008;5.426;2024-03-17T13:41:59;16.10;77.60
49731;DHT22;35622;52.008;5.426;2024-03-17T13:44:31;16.00;77.90
49731;DHT22;35622;52.008;5.426;2024-03-17T13:46:58;15.90;78.20
49731;DHT22;35622;52.008;5.426;2024-03-17T13:49:24;16.10;77.50
49731;DHT22;35622;52.008;5.426;2024-03-17T13:51:52;16.00;78.60
49731;DHT22;35622;52.008;5.426;2024-03-17T13:54:17;16.20;78.40
49731;DHT22;35622;52.008;5.426;2024-03-17T13:56:46;16.30;76.40
49731;DHT22;35622;52.008;5.426;2024-03-17T13:59:13;16.30;76.70
49731;DHT22;35622;52.008;5.426;2024-03-17T14:01:38;16.20;76.70
49731;DHT22;35622;52.008;5.426;2024-03-17T14:04:04;16.10;77.10
49731;DHT22;35622;52.008;5.426;2024-03-17T14:06:30;16.00;77.80
49731;DHT22;35622;52.008;5.426;2024-03-17T14:08:55;16.00;77.70
49731;DHT22;35622;52.008;5.426;2024-03-17T14:11:21;16.00;78.20
49731;DHT22;35622;52.008;5.426;2024-03-17T14:13:46;16.00;77.50
49731;DHT22;35622;52.008;5.426;2024-03-17T14:16:12;15.90;78.20
49731;DHT22;35622;52.008;5.426;2024-03-17T14:18:38;15.90;78.60
49731;DHT22;35622;52.008;5.426;2024-03-17T14:21:03;15.80;79.20
49731;DHT22;35622;52.008;5.426;2024-03-17T14:23:30;15.80;79.20
49731;DHT22;35622;52.008;5.426;2024-03-17T14:25:56;16.00;78.70
49731;DHT22;35622;52.008;5.426;2024-03-17T14:28:22;16.00;80.00
49731;DHT22;35622;52.008;5.426;2024-03-17T14:30:47;16.00;78.40
49731;DHT22;35622;52.008;5.426;2024-03-17T14:33:13;16.00;79.20
49731;DHT22;35622;52.008;5.426;2024-03-17T14:35:38;16.00;80.10
49731;DHT22;35622;52.008;5.426;2024-03-17T14:38:06;15.90;81.30
49731;DHT22;35622;52.008;5.426;2024-03-17T14:40:35;16.20;80.60
49731;DHT22;35622;52.008;5.426;2024-03-17T14:43:01;16.50;77.40
49731;DHT22;35622;52.008;5.426;2024-03-17T14:45:28;16.40;78.70
49731;DHT22;35622;52.008;5.426;2024-03-17T14:47:54;16.30;78.70
49731;DHT22;35622;52.008;5.426;2024-03-17T14:50:19;16.40;78.30
49731;DHT22;35622;52.008;5.426;2024-03-17T14:52:45;16.50;78.50
49731;DHT22;35622;52.008;5.426;2024-03-17T14:55:12;16.70;77.90
49731;DHT22;35622;52.008;5.426;2024-03-17T14:57:38;16.70;77.70
49731;DHT22;35622;52.008;5.426;2024-03-17T15:00:09;16.90;76.50
49731;DHT22;35622;52.008;5.426;2024-03-17T15:02:45;16.80;77.10
49731;DHT22;35622;52.008;5.426;2024-03-17T15:05:12;17.00;77.10
49731;DHT22;35622;52.008;5.426;2024-03-17T15:07:37;17.10;76.00
49731;DHT22;35622;52.008;5.426;2024-03-17T15:10:05;16.80;77.40
49731;DHT22;35622;52.008;5.426;2024-03-17T15:12:30;16.40;77.40
49731;DHT22;35622;52.008;5.426;2024-03-17T15:14:56;16.20;78.40
49731;DHT22;35622;52.008;5.426;2024-03-17T15:17:22;16.00;79.70
49731;DHT22;35622;52.008;5.426;2024-03-17T15:19:47;16.10;80.30
49731;DHT22;35622;52.008;5.426;2024-03-17T15:22:13;16.10;79.60
49731;DHT22;35622;52.008;5.426;2024-03-17T15:24:39;16.20;78.50
49731;DHT22;35622;52.008;5.426;2024-03-17T15:27:05;16.30;79.20
49731;DHT22;35622;52.008;5.426;2024-03-17T15:29:31;16.40;79.80
49731;DHT22;35622;52.008;5.426;2024-03-17T15:31:56;16.70;78.10
49731;DHT22;35622;52.008;5.426;2024-03-17T15:34:25;17.00;77.00
49731;DHT22;35622;52.008;5.426;2024-03-17T15:36:50;17.00;76.60
49731;DHT22;35622;52.008;5.426;2024-03-17T15:39:16;17.00;76.80
49731;DHT22;35622;52.008;5.426;2024-03-17T15:41:41;17.20;77.00
49731;DHT22;35622;52.008;5.426;2024-03-17T15:44:07;17.30;77.30
49731;DHT22;35622;52.008;5.426;2024-03-17T15:46:33;17.40;75.10
49731;DHT22;35622;52.008;5.426;2024-03-17T15:48:58;17.10;76.50
49731;DHT22;35622;52.008;5.426;2024-03-17T15:51:24;17.00;77.30
49731;DHT22;35622;52.008;5.426;2024-03-17T15:53:50;16.80;76.50
49731;DHT22;35622;52.008;5.426;2024-03-17T15:56:16;16.70;77.70
49731;DHT22;35622;52.008;5.426;2024-03-17T15:58:42;16.60;77.60
49731;DHT22;35622;52.008;5.426;2024-03-17T16:01:08;16.60;77.50
49731;DHT22;35622;52.008;5.426;2024-03-17T16:03:37;16.60;78.60
49731;DHT22;35622;52.008;5.426;2024-03-17T16:06:09;16.80;78.10
49731;DHT22;35622;52.008;5.426;2024-03-17T16:08:40;16.90;77.40
49731;DHT22;35622;52.008;5.426;2024-03-17T16:11:10;16.70;77.50
49731;DHT22;35622;52.008;5.426;2024-03-17T16:13:39;16.40;78.50